Latest Weather Observations for Badgerys Creek

IDN60901

Issued at 4:51 am EDT Wednesday 13 November 2019 (issued every 10 minutes, with the page automatically refreshed every 10 minutes)

About weather observations | Map of Sydney area stations | Latest observations for Sydney area | Other Formats
Station Details ID: 067108 Name: BADGERYS CREEK AWS Lat: -33.90 Lon: 150.73 Height: 81.2 m
Data from the previous 72 hours. | See also: Recent months at Badgerys Creek
Date/Time
EDT
Temp
°C
App
Temp
°C
Dew
Point
°C
Rel
Hum
%
Delta-T
°C
Wind Press
QNH
hPa
Press
MSL
hPa
Rain since
9am
mm
Dir  Spd
km/h
Gust
km/h
Spd
kts
Gust
kts
13/04:30am 13.8 9.3 2.1 45 5.1 SW 15 24 8 13 1011.5 1011.3 0.0
13/04:00am 13.1 12.0 10.6 85 1.3 W 7 15 4 8 1011.1 1010.8 0.0
13/03:30am 10.8 9.2 8.7 87 1.0 WNW 7 9 4 5 1010.9 1010.6 0.0
13/03:00am 11.4 11.3 9.3 87 1.1 CALM 0 0 0 0 1010.8 1010.5 0.0
13/02:30am 11.7 10.3 8.9 83 1.4 WNW 6 7 3 4 1010.6 1010.3 0.0
13/02:00am 11.8 10.1 8.3 79 1.7 SE 7 9 4 5 1010.5 1010.2 0.0
13/01:30am 12.9 11.5 9.5 80 1.7 SE 7 9 4 5 1010.6 1010.3 0.0
13/01:00am 13.9 13.4 9.5 75 2.3 SE 2 6 1 3 1010.3 1010.0 0.0
13/12:30am 14.8 14.5 10.0 73 2.5 SE 2 7 1 4 1010.3 1010.0 0.0
13/12:00am 15.2 13.7 10.4 73 2.5 SE 9 15 5 8 1010.2 1009.9 0.0
 
Date/Time
EDT
Temp
°C
App
Temp
°C
Dew
Point
°C
Rel
Hum
%
Delta-T
°C
Wind Press
QNH
hPa
Press
MSL
hPa
Rain since
9am
mm
Dir  Spd
km/h
Gust
km/h
Spd
kts
Gust
kts
12/11:30pm 15.7 13.0 10.5 71 2.8 SE 15 24 8 13 1009.9 1009.6 0.0
12/11:00pm 16.2 13.7 10.9 71 2.8 ESE 15 22 8 12 1009.4 1009.1 0.0
12/10:30pm 16.8 14.3 10.9 68 3.2 SE 15 22 8 12 1008.8 1008.5 0.0
12/10:00pm 18.6 15.6 10.7 60 4.3 ESE 17 24 9 13 1008.2 1007.9 0.0
12/09:47pm 20.0 17.0 9.3 50 5.7 S 15 30 8 16 1007.6 1007.3 0.0
12/09:30pm 25.0 19.4 3.6 25 10.6 WSW 22 35 12 19 1006.5 1006.2 0.0
12/09:00pm 25.6 18.4 2.9 23 11.1 WSW 30 41 16 22 1005.6 1005.3 0.0
12/08:30pm 26.5 19.1 1.7 20 11.9 WSW 30 43 16 23 1005.1 1004.8 0.0
12/08:11pm 27.1 19.6 1.5 19 12.3 WSW 30 48 16 26 1004.6 1004.4 0.0
12/08:00pm 27.2 20.8 0.8 18 12.6 WSW 24 33 13 18 1004.4 1004.2 0.0
12/07:30pm 28.8 20.5 -0.4 15 13.8 WSW 33 52 18 28 1003.9 1003.7 0.0
12/07:24pm 29.0 21.3 -0.2 15 13.8 WSW 30 52 16 28 1003.5 1003.3 0.0
12/07:00pm 30.0 22.9 -1.4 13 14.7 WSW 26 39 14 21 1002.5 1002.3 0.0
12/06:38pm 31.7 24.1 -2.3 11 15.9 W 28 46 15 25 1002.1 1001.9 0.0
12/06:30pm 31.8 24.4 -3.5 10 16.1 W 26 37 14 20 1002.1 1001.9 0.0
12/06:11pm 32.4 23.8 -4.5 9 16.7 W 32 52 17 28 1001.4 1001.2 0.0
12/06:00pm 33.1 24.3 -4.0 9 17.1 W 33 48 18 26 1001.0 1000.8 0.0
12/05:53pm 33.5 23.2 -3.7 9 17.2 W 41 61 22 33 1001.1 1000.9 0.0
12/05:49pm 33.5 22.9 -3.7 9 17.2 W 43 61 23 33 1000.8 1000.5 0.0
12/05:30pm 34.0 26.3 -3.3 9 17.4 WNW 28 48 15 26 1000.5 1000.2 0.0
12/05:00pm 35.4 28.9 -2.3 9 18.1 NW 22 33 12 18 1000.2 999.9 0.0
12/04:30pm 35.3 26.2 -3.9 8 18.3 WNW 35 57 19 31 1000.2 999.9 0.0
12/04:27pm 35.5 26.9 -2.2 9 18.1 WNW 33 52 18 28 1000.2 999.9 0.0
12/04:00pm 35.4 26.1 -2.3 9 18.1 WNW 37 50 20 27 1000.4 1000.1 0.0
12/03:30pm 35.9 26.0 -3.5 8 18.6 WNW 39 63 21 34 1000.6 1000.3 0.0
12/03:00pm 35.8 25.2 -3.5 8 18.6 NW 43 63 23 34 1000.9 1000.7 0.0
12/02:41pm 35.8 26.7 -3.5 8 18.5 NW 35 61 19 33 1001.2 1001.0 0.0
12/02:30pm 35.8 27.3 -2.0 9 18.2 NW 33 50 18 27 1001.5 1001.3 0.0
12/02:02pm 35.2 25.5 -2.4 9 17.9 NW 39 61 21 33 1002.0 1001.8 0.0
12/02:00pm 35.5 26.2 -2.2 9 18.2 NW 37 54 20 29 1002.0 1001.8 0.0
12/01:57pm 35.3 26.7 -2.3 9 18.0 NW 33 50 18 27 1002.1 1001.9 0.0
12/01:31pm 33.8 24.5 -2.0 10 17.0 W 37 57 20 31 1002.7 1002.5 0.0
12/01:30pm 33.5 24.0 -3.7 9 17.2 WNW 37 57 20 31 1002.7 1002.5 0.0
12/01:17pm 36.2 28.3 -1.7 9 18.4 WNW 30 52 16 28 1002.8 1002.6 0.0
12/01:00pm 35.1 26.7 -2.5 9 18.0 WNW 32 46 17 25 1002.9 1002.7 0.0
12/12:40pm 34.9 27.4 -1.2 10 17.5 NW 28 48 15 26 1003.1 1002.9 0.0
12/12:30pm 34.1 27.3 -1.8 10 17.2 WNW 24 37 13 20 1003.3 1003.1 0.0
12/12:00pm 33.6 25.2 -2.2 10 17.0 WNW 32 52 17 28 1003.8 1003.6 0.0
12/11:56am 33.5 26.1 -1.0 11 16.6 WNW 28 48 15 26 1004.0 1003.8 0.0
12/11:30am 32.9 24.9 -2.7 10 16.6 WNW 30 43 16 23 1004.5 1004.3 0.0
12/11:00am 32.3 25.9 -1.9 11 16.2 NW 22 30 12 16 1005.3 1005.0 0.0
12/10:30am 31.4 24.7 -1.4 12 15.5 NW 24 41 13 22 1005.8 1005.5 0.0
12/10:00am 28.3 25.6 5.8 24 11.8 NNE 9 17 5 9 1006.5 1006.2 0.0
12/09:30am 25.7 22.7 7.8 32 9.6 NNE 13 19 7 10 1007.2 1006.9 0.0
12/09:00am 22.5 19.2 8.2 40 7.6 N 15 20 8 11 1007.6 1007.3 0.0
12/08:30am 20.5 18.6 9.1 48 6.1 NNE 9 17 5 9 1008.2 1007.9 0.0
12/08:00am 16.8 16.6 11.7 72 2.8 NNE 4 6 2 3 1008.5 1008.2 0.0
12/07:30am 14.1 15.2 13.6 97 0.3 CALM 0 4 0 2 1008.6 1008.3 0.0
12/07:00am 11.9 12.1 11.7 99 0.1 NNE 2 4 1 2 1008.8 1008.5 0.0
12/06:30am 10.4 10.5 10.2 99 0.1 CALM 0 2 0 1 1008.8 1008.5 0.0
12/06:00am 10.2 9.1 10.1 99 0.1 NNE 6 7 3 4 1008.8 1008.5 0.0
12/05:30am 10.1 9.8 10.0 99 0.1 NNE 2 7 1 4 1008.5 1008.2 0.0
12/05:00am 9.3 9.1 9.0 98 0.1 CALM 0 0 0 0 1008.5 1008.2 0.0
12/04:30am 11.4 10.6 11.2 99 0.1 NNE 6 7 3 4 1008.9 1008.6 0.0
12/04:00am 11.0 10.5 10.7 98 0.2 NNE 4 6 2 3 1009.3 1009.0 0.0
12/03:30am 12.0 12.5 11.7 98 0.2 CALM 0 0 0 0 1009.7 1009.4 0.0
12/03:00am 12.1 12.6 11.5 96 0.3 CALM 0 0 0 0 1009.9 1009.6 0.0
12/02:30am 13.0 13.7 12.2 95 0.4 CALM 0 0 0 0 1010.2 1009.9 0.0
12/02:00am 13.1 13.8 12.2 94 0.5 CALM 0 0 0 0 1010.6 1010.3 0.0
12/01:30am 13.5 14.2 12.1 91 0.8 CALM 0 0 0 0 1011.0 1010.7 0.0
12/01:00am 14.1 13.7 12.3 89 1.0 NNE 6 6 3 3 1011.5 1011.3 0.0
12/12:30am 15.0 15.7 12.3 84 1.5 CALM 0 0 0 0 1011.8 1011.6 0.0
12/12:00am 15.4 16.2 12.7 84 1.5 CALM 0 0 0 0 1012.0 1011.8 0.0
 
Date/Time
EDT
Temp
°C
App
Temp
°C
Dew
Point
°C
Rel
Hum
%
Delta-T
°C
Wind Press
QNH
hPa
Press
MSL
hPa
Rain since
9am
mm
Dir  Spd
km/h
Gust
km/h
Spd
kts
Gust
kts
11/11:30pm 15.9 16.5 11.9 77 2.2 CALM 0 0 0 0 1012.2 1012.0 0.0
11/11:00pm 16.9 17.6 12.2 74 2.6 CALM 0 0 0 0 1012.2 1012.0 0.0
11/10:30pm 18.1 18.2 12.8 71 3.0 NNE 4 6 2 3 1012.2 1012.0 0.0
11/10:00pm 19.0 18.7 12.7 67 3.5 NNE 6 7 3 4 1012.3 1012.1 0.0
11/09:30pm 19.8 19.6 13.0 65 3.9 NNE 6 9 3 5 1012.3 1012.1 0.0
11/09:00pm 20.3 19.9 12.5 61 4.4 NE 6 9 3 5 1011.9 1011.7 0.0
11/08:30pm 21.1 20.4 12.0 56 5.1 NE 7 11 4 6 1011.6 1011.4 0.0
11/08:00pm 21.9 21.2 11.9 53 5.6 NE 7 13 4 7 1011.3 1011.0 0.0
11/07:30pm 23.3 21.9 12.3 50 6.3 NE 11 15 6 8 1010.9 1010.6 0.0
11/07:00pm 24.7 22.0 11.6 44 7.4 ENE 17 24 9 13 1010.5 1010.2 0.0
11/06:30pm 26.3 22.8 10.9 38 8.7 NE 20 28 11 15 1010.0 1009.7 0.0
11/06:00pm 28.4 25.1 11.0 34 10.0 NE 19 30 10 16 1009.6 1009.3 0.0
11/05:30pm 29.8 26.2 5.1 21 12.9 NNE 13 20 7 11 1009.6 1009.3 0.0
11/05:00pm 29.9 25.7 5.9 22 12.7 NE 17 28 9 15 1009.8 1009.5 0.0
11/04:30pm 30.1 26.9 6.7 23 12.6 NNE 13 20 7 11 1010.0 1009.7 0.0
11/04:00pm 29.4 26.0 6.1 23 12.4 NE 13 20 7 11 1010.4 1010.1 0.0
11/03:30pm 29.2 25.6 6.6 24 12.1 NNE 15 24 8 13 1010.7 1010.4 0.0
11/03:00pm 29.3 25.7 6.7 24 12.1 NNE 15 30 8 16 1011.0 1010.7 0.0
11/02:30pm 29.1 25.3 7.7 26 11.6 NNE 17 28 9 15 1011.6 1011.4 0.0
11/02:00pm 28.1 24.9 6.8 26 11.3 N 13 30 7 16 1012.3 1012.1 0.0
11/01:30pm 28.1 25.8 7.4 27 11.1 NW 9 24 5 13 1013.0 1012.8 0.0
11/01:00pm 27.1 24.8 7.5 29 10.5 NNE 9 19 5 10 1013.5 1013.3 0.0
11/12:30pm 26.6 24.5 8.1 31 10.0 NW 9 17 5 9 1014.0 1013.8 0.0
11/12:00pm 25.9 23.7 8.0 32 9.6 N 9 17 5 9 1014.6 1014.4 0.0
11/11:30am 24.8 23.8 8.7 36 8.7 NNE 4 15 2 8 1015.2 1015.0 0.0
11/11:00am 22.8 20.9 7.4 37 8.0 N 7 15 4 8 1015.6 1015.4 0.0
11/10:30am 22.4 20.9 9.2 43 7.1 N 7 13 4 7 1016.0 1015.8 0.0
11/10:00am 20.8 19.1 9.7 49 6.0 NNE 9 17 5 9 1016.2 1016.0 0.0
11/09:30am 19.4 18.1 10.1 55 5.0 NNE 7 11 4 6 1016.6 1016.4 0.0
11/09:00am 17.7 16.9 9.6 59 4.3 NNE 4 9 2 5 1016.8 1016.6 0.0
11/08:30am 16.9 17.0 10.1 64 3.6 CALM 0 2 0 1 1016.8 1016.6 0.0
11/08:00am 14.4 13.9 10.6 78 2.0 S 4 6 2 3 1016.9 1016.7 0.0
11/07:30am 12.3 12.0 11.4 94 0.5 SSE 4 6 2 3 1016.7 1016.5 0.0
11/07:00am 10.6 10.0 10.3 98 0.2 SSE 4 4 2 2 1016.4 1016.2 0.0
11/06:30am 9.3 9.1 9.0 98 0.1 CALM 0 0 0 0 1016.5 1016.3 0.0
11/06:00am 9.4 9.2 9.1 98 0.1 CALM 0 0 0 0 1016.1 1015.9 0.0
11/05:30am 9.3 9.0 8.8 97 0.2 CALM 0 2 0 1 1015.9 1015.7 0.0
11/05:00am 9.6 9.1 9.3 98 0.1 SSE 2 4 1 2 1016.0 1015.8 0.0
11/04:30am 9.8 8.5 9.3 97 0.2 SSE 6 6 3 3 1015.9 1015.7 0.0
11/04:00am 10.1 9.3 9.6 97 0.3 SSE 4 4 2 2 1015.9 1015.7 0.0
11/03:30am 9.8 8.8 8.9 94 0.4 SSE 4 4 2 2 1016.0 1015.8 0.0
11/03:00am 10.5 10.4 9.3 92 0.6 CALM 0 0 0 0 1016.0 1015.8 0.0
11/02:30am 11.3 11.3 9.9 91 0.7 CALM 0 0 0 0 1016.0 1015.8 0.0
11/02:00am 11.2 11.1 9.5 89 0.9 CALM 0 0 0 0 1016.2 1016.0 0.0
11/01:30am 11.4 11.3 9.5 88 1.0 CALM 0 0 0 0 1016.2 1016.0 0.0
11/01:00am 12.0 11.9 9.6 85 1.2 CALM 0 0 0 0 1016.4 1016.2 0.0
11/12:30am 12.1 11.9 8.9 81 1.6 CALM 0 0 0 0 1016.6 1016.4 0.0
11/12:00am 13.1 12.6 9.2 77 2.0 ESE 2 6 1 3 1016.6 1016.4 0.0
 
Date/Time
EDT
Temp
°C
App
Temp
°C
Dew
Point
°C
Rel
Hum
%
Delta-T
°C
Wind Press
QNH
hPa
Press
MSL
hPa
Rain since
9am
mm
Dir  Spd
km/h
Gust
km/h
Spd
kts
Gust
kts
10/11:30pm 13.9 12.7 9.7 76 2.2 ESE 6 6 3 3 1016.6 1016.4 0.0
10/11:00pm 14.1 14.0 9.5 74 2.4 CALM 0 0 0 0 1016.6 1016.4 0.0
10/10:30pm 14.8 14.0 9.8 72 2.6 ESE 4 4 2 2 1016.5 1016.3 0.0
10/10:00pm 15.2 14.4 9.6 69 2.9 ESE 4 4 2 2 1016.4 1016.2 0.0
10/09:30pm 15.8 15.8 9.7 67 3.2 CALM 0 0 0 0 1016.4 1016.2 0.0
10/09:00pm 15.8 14.9 9.2 65 3.4 ESE 4 6 2 3 1015.9 1015.7 0.0
10/08:30pm 16.3 15.4 9.3 63 3.6 ESE 4 9 2 5 1015.4 1015.2 0.0
10/08:00pm 16.9 15.0 9.1 60 4.1 SE 9 15 5 8 1014.9 1014.7 0.0
10/07:30pm 18.0 15.5 8.3 53 5.0 SE 11 20 6 11 1014.3 1014.1 0.0
10/07:00pm 18.9 15.1 7.7 48 5.7 ESE 17 22 9 12 1013.3 1013.1 0.0
10/06:30pm 20.1 16.0 7.8 45 6.4 ESE 19 26 10 14 1012.4 1012.2 0.0
10/06:00pm 20.4 16.1 7.7 44 6.6 E 20 32 11 17 1011.6 1011.4 0.0
10/05:30pm 22.4 17.6 7.4 38 7.8 E 22 33 12 18 1010.9 1010.6 0.0
10/05:00pm 26.3 21.1 5.3 26 10.8 SSW 22 33 12 18 1010.3 1010.0 0.0
10/04:30pm 26.6 20.9 5.0 25 11.0 SSW 24 39 13 21 1010.1 1009.8 0.0
10/04:00pm 26.7 21.9 5.6 26 10.9 SW 20 33 11 18 1010.0 1009.7 0.0
10/03:30pm 26.7 20.7 5.1 25 11.1 SSW 26 37 14 20 1010.1 1009.8 0.0
10/03:00pm 25.9 21.0 4.9 26 10.7 SSW 20 37 11 20 1010.2 1009.9 0.0
10/02:30pm 26.6 21.3 5.0 25 11.0 SW 22 39 12 21 1010.6 1010.3 0.0
10/02:00pm 25.5 21.5 5.1 27 10.4 SW 15 26 8 14 1010.9 1010.6 0.0
10/01:30pm 24.8 20.5 5.1 28 10.0 SSW 17 32 9 17 1011.3 1011.0 0.0
10/01:00pm 24.3 21.0 4.6 28 9.9 SSW 11 28 6 15 1011.4 1011.1 0.0
10/12:30pm 23.9 18.4 3.8 27 9.9 SSW 22 32 12 17 1011.9 1011.7 0.0
10/12:00pm 23.5 18.5 4.5 29 9.4 SW 20 32 11 17 1012.1 1011.9 0.0
10/11:30am 22.6 18.0 3.7 29 9.2 SW 17 30 9 16 1012.4 1012.2 0.0
10/11:00am 22.6 18.4 3.7 29 9.2 SSW 15 26 8 14 1012.5 1012.3 0.0
10/10:30am 21.5 17.7 3.7 31 8.6 WSW 13 26 7 14 1012.7 1012.5 0.0
10/10:00am 20.7 16.1 3.9 33 8.1 WNW 17 28 9 15 1012.6 1012.4 0.0
10/09:30am 19.7 15.8 3.4 34 7.7 SW 13 26 7 14 1012.8 1012.6 0.0
10/09:00am 19.0 15.1 3.6 36 7.3 W 13 26 7 14 1012.9 1012.7 0.0
10/08:30am 18.0 13.7 3.1 37 6.9 WSW 15 28 8 15 1013.0 1012.8 0.0
10/08:00am 17.4 12.2 3.3 39 6.5 WSW 20 28 11 15 1012.5 1012.3 0.0
10/07:30am 16.6 11.5 3.3 41 6.1 SW 19 28 10 15 1012.2 1012.0 0.0
10/07:00am 15.7 13.4 2.8 42 5.8 S 4 7 2 4 1011.9 1011.7 0.0
10/06:30am 13.6 10.4 2.8 48 4.8 W 9 15 5 8 1011.7 1011.5 0.0
10/06:00am 13.7 10.9 2.0 45 5.1 W 6 11 3 6 1011.3 1011.0 0.0
10/05:30am 14.4 12.0 2.0 43 5.5 SSW 4 17 2 9 1010.8 1010.5 0.0
10/05:00am 15.0 10.5 1.9 41 5.8 WSW 15 20 8 11 1010.7 1010.4 0.0

Latest Capital City Observations: Canberra | Sydney | Melbourne | Brisbane | Adelaide | Perth | Hobart | Darwin

Other formats

Comma delimited format used in spreadsheet applications
http://www.bom.gov.au/fwo/IDN60901/IDN60901.94752.axf

JavaScript Object Notation format (JSON) in row-major order
http://www.bom.gov.au/fwo/IDN60901/IDN60901.94752.json

Data quality

Most of these data are generated automatically and are frequently updated. Quality checks on data are not normally performed. It is possible for incorrect values to appear. Refer to information at About Latest Weather Observations and please check the disclaimer before using these data.